createdAt,value
2023-04-11T00:00:52.696Z,3.70
2023-04-11T00:03:22.630Z,3.28
2023-04-11T00:05:50.786Z,5.05
2023-04-11T00:08:22.021Z,3.53
2023-04-11T00:10:49.737Z,2.67
2023-04-11T00:13:19.842Z,2.90
2023-04-11T00:15:47.941Z,3.58
2023-04-11T00:18:15.665Z,3.95
2023-04-11T00:20:44.692Z,2.17
2023-04-11T00:23:13.049Z,3.00
2023-04-11T00:25:40.770Z,2.85
2023-04-11T00:28:08.750Z,2.80
2023-04-11T00:30:36.652Z,3.83
2023-04-11T00:33:04.651Z,3.30
2023-04-11T00:35:34.667Z,3.72
2023-04-11T00:38:05.557Z,3.83
2023-04-11T00:40:33.533Z,3.95
2023-04-11T00:43:01.247Z,3.90
2023-04-11T00:45:28.930Z,3.15
2023-04-11T00:47:56.604Z,2.60
2023-04-11T00:50:25.248Z,3.50
2023-04-11T00:52:54.234Z,2.70
2023-04-11T00:55:23.507Z,3.30
2023-04-11T00:57:53.951Z,3.80
2023-04-11T01:00:21.689Z,2.40
2023-04-11T01:02:49.870Z,2.75
2023-04-11T01:05:18.617Z,3.33
2023-04-11T01:07:47.898Z,3.60
2023-04-11T01:10:16.366Z,3.40
2023-04-11T01:12:46.615Z,2.92
2023-04-11T01:15:14.322Z,2.85
2023-04-11T01:17:42.551Z,2.75
2023-04-11T01:20:11.705Z,2.83
2023-04-11T01:22:40.538Z,2.83
2023-04-11T01:25:10.456Z,3.30
2023-04-11T01:27:38.111Z,2.20
2023-04-11T01:30:07.014Z,3.25
2023-04-11T01:32:34.734Z,2.78
2023-04-11T01:35:03.056Z,3.95
2023-04-11T01:37:30.698Z,2.97
2023-04-11T01:39:58.410Z,2.60
2023-04-11T01:42:29.489Z,2.92
2023-04-11T01:44:57.282Z,2.80
2023-04-11T01:47:25.110Z,3.08
2023-04-11T01:49:53.733Z,3.78
2023-04-11T01:52:21.524Z,3.08
2023-04-11T01:54:49.270Z,3.28
2023-04-11T01:57:17.228Z,3.83
2023-04-11T01:59:46.327Z,2.85
2023-04-11T02:02:15.255Z,2.78
2023-04-11T02:04:42.969Z,2.75
2023-04-11T02:07:13.344Z,2.17
2023-04-11T02:09:41.029Z,3.50
2023-04-11T02:12:08.713Z,2.47
2023-04-11T02:14:43.002Z,3.22
2023-04-11T02:17:12.155Z,2.38
2023-04-11T02:19:41.159Z,3.10
2023-04-11T02:22:09.213Z,2.33
2023-04-11T02:24:36.841Z,3.17
2023-04-11T02:27:04.604Z,2.80
2023-04-11T02:29:32.375Z,2.75
2023-04-11T02:32:00.092Z,3.15
2023-04-11T02:34:29.317Z,2.50
2023-04-11T02:36:58.022Z,3.25
2023-04-11T02:39:26.364Z,3.38
2023-04-11T02:41:54.190Z,2.55
2023-04-11T02:44:22.597Z,2.38
2023-04-11T02:46:50.527Z,3.83
2023-04-11T02:49:18.261Z,3.33
2023-04-11T02:51:47.244Z,4.15
2023-04-11T02:54:14.866Z,2.45
2023-04-11T02:56:43.435Z,2.63
2023-04-11T02:59:11.090Z,2.90
2023-04-11T03:01:39.014Z,2.70
2023-04-11T03:04:07.398Z,2.35
2023-04-11T03:06:36.017Z,1.90
2023-04-11T03:09:05.058Z,2.50
2023-04-11T03:11:32.834Z,2.22
2023-04-11T03:14:00.536Z,3.45
2023-04-11T03:16:28.562Z,2.55
2023-04-11T03:18:56.435Z,3.53
2023-04-11T03:21:24.228Z,2.47
2023-04-11T03:23:51.890Z,2.35
2023-04-11T03:26:21.895Z,2.42
2023-04-11T03:28:49.507Z,3.78
2023-04-11T03:31:17.745Z,2.15
2023-04-11T03:33:46.175Z,2.58
2023-04-11T03:36:13.877Z,2.25
2023-04-11T03:38:41.655Z,2.70
2023-04-11T03:41:09.318Z,2.78
2023-04-11T03:43:38.343Z,2.20
2023-04-11T03:46:06.912Z,3.13
2023-04-11T03:48:35.154Z,2.85
2023-04-11T03:51:03.029Z,3.03
2023-04-11T03:53:30.666Z,2.53
2023-04-11T03:55:58.365Z,2.03
2023-04-11T03:58:26.383Z,2.13
2023-04-11T04:00:55.410Z,2.30
2023-04-11T04:03:23.352Z,2.22
2023-04-11T04:05:51.122Z,2.50
2023-04-11T04:08:18.779Z,3.60
2023-04-11T04:10:47.094Z,2.55
2023-04-11T04:13:14.706Z,2.10
2023-04-11T04:15:42.396Z,1.83
2023-04-11T04:18:13.902Z,3.25
2023-04-11T04:20:42.448Z,2.20
2023-04-11T04:23:14.234Z,2.70
2023-04-11T04:25:45.680Z,2.90
2023-04-11T04:28:15.123Z,2.40
2023-04-11T04:30:42.902Z,2.25
2023-04-11T04:33:14.860Z,2.50
2023-04-11T04:35:42.481Z,3.10
2023-04-11T04:38:10.175Z,3.08
2023-04-11T04:40:39.912Z,2.05
2023-04-11T04:43:09.125Z,2.05
2023-04-11T04:45:36.783Z,2.03
2023-04-11T04:48:04.560Z,3.65
2023-04-11T04:50:33.541Z,2.83
2023-04-11T04:53:01.663Z,2.35
2023-04-11T04:55:30.599Z,1.88
2023-04-11T04:57:58.289Z,1.70
2023-04-11T05:00:25.990Z,2.22
2023-04-11T05:02:55.116Z,1.90
2023-04-11T05:05:22.874Z,1.77
2023-04-11T05:07:52.097Z,1.90
2023-04-11T05:10:20.124Z,2.92
2023-04-11T05:12:47.822Z,2.25
2023-04-11T05:15:15.516Z,2.17
2023-04-11T05:17:43.574Z,2.22
2023-04-11T05:20:11.716Z,2.53
2023-04-11T05:22:39.308Z,2.03
2023-04-11T05:25:11.894Z,2.05
2023-04-11T05:27:50.977Z,2.38
2023-04-11T05:30:18.650Z,1.65
2023-04-11T05:32:46.573Z,2.20
2023-04-11T05:35:14.278Z,1.88
2023-04-11T05:37:43.413Z,1.77
2023-04-11T05:40:12.805Z,2.28
2023-04-11T05:42:40.485Z,2.03
2023-04-11T05:45:08.738Z,2.40
2023-04-11T05:47:36.369Z,1.80
2023-04-11T05:50:04.348Z,1.63
2023-04-11T05:52:32.158Z,1.33
2023-04-11T05:54:59.819Z,1.58
2023-04-11T05:57:28.886Z,1.48
2023-04-11T05:59:56.568Z,1.73
2023-04-11T06:02:24.388Z,2.03
2023-04-11T06:04:53.769Z,2.22
2023-04-11T06:07:22.290Z,1.90
2023-04-11T06:09:49.966Z,1.90
2023-04-11T06:12:17.615Z,1.75
2023-04-11T06:14:46.612Z,1.83
2023-04-11T06:17:14.298Z,2.63
2023-04-11T06:19:42.076Z,2.92
2023-04-11T06:22:09.733Z,2.08
2023-04-11T06:24:38.899Z,1.90
2023-04-11T06:27:09.346Z,3.75
2023-04-11T06:29:37.256Z,2.40
2023-04-11T06:32:07.006Z,1.98
2023-04-11T06:34:34.661Z,2.42
2023-04-11T06:37:04.963Z,2.00
2023-04-11T06:39:32.587Z,2.38
2023-04-11T06:42:00.487Z,1.85
2023-04-11T06:44:28.483Z,2.45
2023-04-11T06:46:56.711Z,2.80
2023-04-11T06:49:26.066Z,1.75
2023-04-11T06:51:54.713Z,2.22
2023-04-11T06:54:22.639Z,2.13
2023-04-11T06:56:50.683Z,2.00
2023-04-11T06:59:19.661Z,1.70
2023-04-11T07:01:47.710Z,2.38
2023-04-11T07:04:15.665Z,1.60
2023-04-11T07:06:44.769Z,2.03
2023-04-11T07:09:12.644Z,1.88
2023-04-11T07:11:41.501Z,1.67
2023-04-11T07:14:09.159Z,1.58
2023-04-11T07:16:37.013Z,1.67
2023-04-11T07:19:05.001Z,1.65
2023-04-11T07:21:32.682Z,1.55
2023-04-11T07:24:01.630Z,2.28
2023-04-11T07:26:32.833Z,1.98
2023-04-11T07:29:00.901Z,1.70
2023-04-11T07:31:28.614Z,1.80
2023-04-11T07:33:56.776Z,1.73
2023-04-11T07:36:24.637Z,3.22
2023-04-11T07:38:52.779Z,1.65
2023-04-11T07:41:21.869Z,1.85
2023-04-11T07:43:49.515Z,2.33
2023-04-11T07:46:17.410Z,1.95
2023-04-11T07:48:45.334Z,4.13
2023-04-11T07:51:17.134Z,2.20
2023-04-11T07:53:44.971Z,1.65
2023-04-11T07:56:13.632Z,1.30
2023-04-11T07:58:42.793Z,2.05
2023-04-11T08:01:20.475Z,2.05
2023-04-11T08:03:48.193Z,1.98
2023-04-11T08:06:16.125Z,3.25
2023-04-11T08:08:44.123Z,1.90
2023-04-11T08:11:11.728Z,1.30
2023-04-11T08:13:39.631Z,1.48
2023-04-11T08:16:09.867Z,1.70
2023-04-11T08:18:37.824Z,3.15
2023-04-11T08:21:05.631Z,2.13
2023-04-11T08:23:33.341Z,2.60
2023-04-11T08:26:01.048Z,1.40
2023-04-11T08:28:28.636Z,1.85
2023-04-11T08:30:58.677Z,2.05
2023-04-11T08:33:27.853Z,1.45
2023-04-11T08:35:55.509Z,1.92
2023-04-11T08:38:23.254Z,1.50
2023-04-11T08:40:50.892Z,1.55
2023-04-11T08:43:18.556Z,1.75
2023-04-11T08:45:46.294Z,2.50
2023-04-11T08:48:14.075Z,1.50
2023-04-11T08:50:43.263Z,2.00
2023-04-11T08:53:10.992Z,1.70
2023-04-11T08:55:45.129Z,2.53
2023-04-11T08:58:12.928Z,1.88
2023-04-11T09:00:40.652Z,1.95
2023-04-11T09:03:09.183Z,1.80
2023-04-11T09:05:38.417Z,1.50
2023-04-11T09:08:10.574Z,1.77
2023-04-11T09:10:39.116Z,2.95
2023-04-11T09:13:24.396Z,1.42
2023-04-11T09:16:04.681Z,1.75
2023-04-11T09:18:32.954Z,1.90
2023-04-11T09:21:01.268Z,1.02
2023-04-11T09:23:30.585Z,1.85
2023-04-11T09:25:58.590Z,1.80
2023-04-11T09:28:26.537Z,1.60
2023-04-11T09:30:55.603Z,2.63
2023-04-11T09:33:24.084Z,1.80
2023-04-11T09:35:52.478Z,1.52
2023-04-11T09:38:31.179Z,2.90
2023-04-11T09:40:58.902Z,2.55
2023-04-11T09:43:26.734Z,2.55
2023-04-11T09:46:10.319Z,1.85
2023-04-11T09:48:46.536Z,2.47
2023-04-11T09:51:24.390Z,1.58
2023-04-11T09:54:04.666Z,2.05
2023-04-11T09:56:34.557Z,1.70
2023-04-11T09:59:03.766Z,1.85
2023-04-11T10:01:31.581Z,1.90
2023-04-11T10:04:01.248Z,1.27
2023-04-11T10:06:31.790Z,2.05
2023-04-11T10:09:08.236Z,1.88
2023-04-11T10:11:36.000Z,2.42
2023-04-11T10:14:03.757Z,2.35
2023-04-11T10:16:34.262Z,2.10
2023-04-11T10:19:22.918Z,1.83
2023-04-11T10:21:50.588Z,1.80
2023-04-11T10:24:21.188Z,1.63
2023-04-11T10:26:49.685Z,1.25
2023-04-11T10:29:40.685Z,1.45
2023-04-11T10:32:12.328Z,1.85
2023-04-11T10:34:41.951Z,1.40
2023-04-11T10:37:10.838Z,1.50
2023-04-11T10:39:58.501Z,1.80
2023-04-11T10:42:31.615Z,1.83
2023-04-11T10:45:17.936Z,2.00
2023-04-11T10:48:01.245Z,1.73
2023-04-11T10:50:37.078Z,1.50
2023-04-11T10:53:06.446Z,1.38
2023-04-11T10:55:43.732Z,1.42
2023-04-11T10:58:14.162Z,1.20
2023-04-11T11:01:00.555Z,1.83
2023-04-11T11:03:30.215Z,1.48
2023-04-11T11:05:59.501Z,1.40
2023-04-11T11:08:31.481Z,1.23
2023-04-11T11:11:01.767Z,1.20
2023-04-11T11:13:40.958Z,1.27
2023-04-11T11:16:09.424Z,1.65
2023-04-11T11:18:38.142Z,1.23
2023-04-11T11:21:07.476Z,1.60
2023-04-11T11:23:39.061Z,1.58
2023-04-11T11:26:06.844Z,1.30
2023-04-11T11:28:34.545Z,1.42
2023-04-11T11:31:04.083Z,1.52
2023-04-11T11:33:32.266Z,1.60
2023-04-11T11:36:01.182Z,1.40
2023-04-11T11:38:29.501Z,1.30
2023-04-11T11:40:57.641Z,1.60
2023-04-11T11:43:27.337Z,1.85
2023-04-11T11:46:10.097Z,1.45
2023-04-11T11:48:39.190Z,1.85
2023-04-11T11:51:07.259Z,1.50
2023-04-11T11:53:34.917Z,1.00
2023-04-11T11:56:12.371Z,1.38
2023-04-11T11:58:43.337Z,1.00
2023-04-11T12:03:43.610Z,1.92
2023-04-11T12:06:11.799Z,1.50
2023-04-11T12:08:41.507Z,1.02
2023-04-11T12:11:12.008Z,1.25
2023-04-11T12:13:39.582Z,1.77
2023-04-11T12:16:07.904Z,1.10
2023-04-11T12:18:35.850Z,1.65
2023-04-11T12:21:04.949Z,1.33
2023-04-11T12:23:32.592Z,1.27
2023-04-11T12:26:00.955Z,1.00
2023-04-11T12:28:28.546Z,1.25
2023-04-11T12:30:56.962Z,1.30
2023-04-11T12:33:24.936Z,0.93
2023-04-11T12:35:52.590Z,0.80
2023-04-11T12:38:21.695Z,1.15
2023-04-11T12:43:21.292Z,1.13
2023-04-11T12:45:48.908Z,1.50
2023-04-11T12:48:16.708Z,1.00
2023-04-11T12:50:44.541Z,1.73
2023-04-11T12:53:12.371Z,1.30
2023-04-11T12:55:41.457Z,1.15
2023-04-11T12:58:09.444Z,1.35
2023-04-11T13:00:38.403Z,1.65
2023-04-11T13:03:06.335Z,1.00
2023-04-11T13:05:36.387Z,0.93
2023-04-11T13:08:04.169Z,1.10
2023-04-11T13:10:32.526Z,1.25
2023-04-11T13:13:11.763Z,1.25
2023-04-11T13:15:48.495Z,1.50
2023-04-11T13:18:16.118Z,1.27
2023-04-11T13:20:43.762Z,1.20
2023-04-11T13:23:11.585Z,1.42
2023-04-11T13:25:41.135Z,1.30
2023-04-11T13:28:10.409Z,1.27
2023-04-11T13:30:39.396Z,1.73
2023-04-11T13:33:07.086Z,1.70
2023-04-11T13:35:34.754Z,1.35
2023-04-11T13:38:03.275Z,1.40
2023-04-11T13:40:30.929Z,1.17
2023-04-11T13:42:58.651Z,0.80
2023-04-11T13:45:29.529Z,1.33
2023-04-11T13:47:57.970Z,1.17
2023-04-11T13:50:25.789Z,1.92
2023-04-11T13:52:54.365Z,1.38
2023-04-11T13:55:23.536Z,2.08
2023-04-11T13:57:51.149Z,1.40
2023-04-11T14:00:20.857Z,1.20
2023-04-11T14:02:52.383Z,1.42
2023-04-11T14:05:20.400Z,2.33
2023-04-11T14:07:48.360Z,0.93
2023-04-11T14:10:16.126Z,1.50
2023-04-11T14:12:43.775Z,0.98
2023-04-11T14:15:11.951Z,1.30
2023-04-11T14:17:39.690Z,1.10
2023-04-11T14:20:25.913Z,1.10
2023-04-11T14:22:53.856Z,0.80
2023-04-11T14:25:22.503Z,1.00
2023-04-11T14:27:50.738Z,1.33
2023-04-11T14:30:18.395Z,1.02
2023-04-11T14:32:46.533Z,1.55
2023-04-11T14:35:15.596Z,1.40
2023-04-11T14:37:44.862Z,0.68
2023-04-11T14:40:12.819Z,1.40
2023-04-11T14:42:40.799Z,0.90
2023-04-11T14:45:08.953Z,1.00
2023-04-11T14:47:37.060Z,0.90
2023-04-11T14:50:04.836Z,0.88
2023-04-11T14:52:33.843Z,1.15
2023-04-11T14:55:01.579Z,1.27
2023-04-11T14:57:43.325Z,1.20
2023-04-11T15:00:17.897Z,1.10
2023-04-11T15:02:46.038Z,1.15
2023-04-11T15:05:15.028Z,1.00
2023-04-11T15:07:44.067Z,1.15
2023-04-11T15:10:12.737Z,1.30
2023-04-11T15:12:41.161Z,0.93
2023-04-11T15:15:09.957Z,1.40
2023-04-11T15:17:40.853Z,0.90
2023-04-11T15:20:09.731Z,1.75
2023-04-11T15:22:41.603Z,0.93
2023-04-11T15:25:11.920Z,1.20
2023-04-11T15:27:39.797Z,1.30
2023-04-11T15:30:08.411Z,1.25
2023-04-11T15:32:36.314Z,1.17
2023-04-11T15:35:04.007Z,1.75
2023-04-11T15:37:31.673Z,1.13
2023-04-11T15:40:02.917Z,1.13
2023-04-11T15:42:42.838Z,1.90
2023-04-11T15:45:11.234Z,1.80
2023-04-11T15:47:40.243Z,1.70
2023-04-11T15:50:08.304Z,1.45
2023-04-11T15:52:36.550Z,1.52
2023-04-11T15:55:04.464Z,1.98
2023-04-11T15:57:33.737Z,1.40
2023-04-11T16:00:01.417Z,2.75
2023-04-11T16:02:29.429Z,1.70
2023-04-11T16:04:57.584Z,2.03
2023-04-11T16:07:26.391Z,1.17
2023-04-11T16:09:54.572Z,1.58
2023-04-11T16:12:22.335Z,1.58
2023-04-11T16:14:51.410Z,1.02
2023-04-11T16:17:20.551Z,1.77
2023-04-11T16:19:48.398Z,1.98
2023-04-11T16:22:16.230Z,1.73
2023-04-11T16:24:43.887Z,1.17
2023-04-11T16:27:11.598Z,1.50
2023-04-11T16:29:39.661Z,1.63
2023-04-11T16:32:09.127Z,1.38
2023-04-11T16:34:36.941Z,1.63
2023-04-11T16:37:04.930Z,1.60
2023-04-11T16:39:32.587Z,1.58
2023-04-11T16:42:05.932Z,1.25
2023-04-11T16:44:33.732Z,1.67
2023-04-11T16:47:01.430Z,2.13
2023-04-11T16:49:30.522Z,1.35
2023-04-11T16:51:58.237Z,1.90
2023-04-11T16:54:25.923Z,1.63
2023-04-11T16:56:53.550Z,1.20
2023-04-11T16:59:21.569Z,1.65
2023-04-11T17:01:49.456Z,1.60
2023-04-11T17:04:17.283Z,1.50
2023-04-11T17:06:46.711Z,1.88
2023-04-11T17:09:14.529Z,2.17
2023-04-11T17:11:43.542Z,1.17
2023-04-11T17:14:11.395Z,1.73
2023-04-11T17:16:39.080Z,1.52
2023-04-11T17:19:06.942Z,2.17
2023-04-11T17:21:34.598Z,2.25
2023-04-11T17:24:03.747Z,2.20
2023-04-11T17:26:31.620Z,1.90
2023-04-11T17:28:59.245Z,2.25
2023-04-11T17:31:29.204Z,2.28
2023-04-11T17:33:57.224Z,2.75
2023-04-11T17:36:28.438Z,1.70
2023-04-11T17:38:56.237Z,1.80
2023-04-11T17:41:25.283Z,1.65
2023-04-11T17:43:55.906Z,1.95
2023-04-11T17:46:23.913Z,2.17
2023-04-11T17:48:51.677Z,2.42
2023-04-11T17:51:19.342Z,2.50
2023-04-11T17:53:47.114Z,1.75
2023-04-11T17:56:14.956Z,1.90
2023-04-11T17:58:45.271Z,1.70
2023-04-11T18:01:13.283Z,1.48
2023-04-11T18:03:41.445Z,1.80
2023-04-11T18:06:10.893Z,1.85
2023-04-11T18:08:50.315Z,1.90
2023-04-11T18:11:19.432Z,1.98
2023-04-11T18:13:50.058Z,1.25
2023-04-11T18:16:18.202Z,1.20
2023-04-11T18:18:46.780Z,1.08
2023-04-11T18:21:32.715Z,2.05
2023-04-11T18:24:00.459Z,1.58
2023-04-11T18:26:28.595Z,1.70
2023-04-11T18:28:57.725Z,1.50
2023-04-11T18:31:25.868Z,1.73
2023-04-11T18:33:53.730Z,2.35
2023-04-11T18:36:22.585Z,1.75
2023-04-11T18:38:50.734Z,2.03
2023-04-11T18:41:19.131Z,2.17
2023-04-11T18:43:49.056Z,1.77
2023-04-11T18:46:18.175Z,1.35
2023-04-11T18:48:45.957Z,1.90
2023-04-11T18:51:13.608Z,1.58
2023-04-11T18:53:41.920Z,2.15
2023-04-11T18:56:10.067Z,2.22
2023-04-11T18:58:45.480Z,1.70
2023-04-11T19:01:16.995Z,1.60
2023-04-11T19:03:47.031Z,1.92
2023-04-11T19:06:17.177Z,1.25
2023-04-11T19:08:50.224Z,1.95
2023-04-11T19:11:31.210Z,1.25
2023-04-11T19:14:00.147Z,1.45
2023-04-11T19:16:28.011Z,1.23
2023-04-11T19:18:58.987Z,1.48
2023-04-11T19:21:26.793Z,2.30
2023-04-11T19:23:55.972Z,1.48
2023-04-11T19:26:26.588Z,1.45
2023-04-11T19:28:54.780Z,1.00
2023-04-11T19:31:25.314Z,1.40
2023-04-11T19:33:54.189Z,1.40
2023-04-11T19:36:23.538Z,1.63
2023-04-11T19:38:52.932Z,1.83
2023-04-11T19:41:20.821Z,1.00
2023-04-11T19:43:48.686Z,1.58
2023-04-11T19:46:16.860Z,1.98
2023-04-11T19:48:47.064Z,1.55
2023-04-11T19:51:14.724Z,1.30
2023-04-11T19:53:43.826Z,1.50
2023-04-11T19:56:11.491Z,1.38
2023-04-11T19:58:39.917Z,2.10
2023-04-11T20:01:09.806Z,2.33
2023-04-11T20:03:37.964Z,2.15
2023-04-11T20:06:06.312Z,1.58
2023-04-11T20:08:36.632Z,2.75
2023-04-11T20:11:06.702Z,1.63
2023-04-11T20:13:36.013Z,2.08
2023-04-11T20:16:04.869Z,1.67
2023-04-11T20:18:33.205Z,1.95
2023-04-11T20:21:01.681Z,1.52
2023-04-11T20:23:31.219Z,1.40
2023-04-11T20:25:59.211Z,1.88
2023-04-11T20:28:28.291Z,1.70
2023-04-11T20:30:59.368Z,1.73
2023-04-11T20:33:28.685Z,2.10
2023-04-11T20:35:56.983Z,2.20
2023-04-11T20:38:26.437Z,2.35
2023-04-11T20:40:54.437Z,1.75
2023-04-11T20:43:22.350Z,2.80
2023-04-11T20:45:53.176Z,1.42
2023-04-11T20:48:21.703Z,2.28
2023-04-11T20:50:49.447Z,1.92
2023-04-11T20:53:17.136Z,1.13
2023-04-11T20:55:44.799Z,2.20
2023-04-11T20:58:17.039Z,1.85
2023-04-11T21:00:44.849Z,2.15
2023-04-11T21:03:14.125Z,1.75
2023-04-11T21:05:44.469Z,2.15
2023-04-11T21:08:12.402Z,2.30
2023-04-11T21:10:40.098Z,2.15
2023-04-11T21:13:08.591Z,2.15
2023-04-11T21:15:36.242Z,2.00
2023-04-11T21:18:06.167Z,1.90
2023-04-11T21:20:36.447Z,2.13
2023-04-11T21:23:04.117Z,2.92
2023-04-11T21:25:32.236Z,2.22
2023-04-11T21:28:00.244Z,1.75
2023-04-11T21:30:28.104Z,1.90
2023-04-11T21:32:55.849Z,1.80
2023-04-11T21:35:23.599Z,1.90
2023-04-11T21:37:52.662Z,2.15
2023-04-11T21:40:20.373Z,1.80
2023-04-11T21:42:47.967Z,2.13
2023-04-11T21:45:16.254Z,1.77
2023-04-11T21:47:44.288Z,2.08
2023-04-11T21:50:12.516Z,1.70
2023-04-11T21:52:40.446Z,2.28
2023-04-11T21:55:11.512Z,2.15
2023-04-11T21:57:39.315Z,1.58
2023-04-11T22:00:08.428Z,1.83
2023-04-11T22:02:36.588Z,2.30
2023-04-11T22:05:07.150Z,2.00
2023-04-11T22:07:39.467Z,2.00
2023-04-11T22:10:10.525Z,2.20
2023-04-11T22:12:39.862Z,1.90
2023-04-11T22:15:08.277Z,2.45
2023-04-11T22:17:37.208Z,2.92
2023-04-11T22:20:09.162Z,2.00
2023-04-11T22:22:37.094Z,2.53
2023-04-11T22:25:07.486Z,2.28
2023-04-11T22:27:39.061Z,2.00
2023-04-11T22:30:07.642Z,2.38
2023-04-11T22:32:37.020Z,2.85
2023-04-11T22:35:06.946Z,3.30
2023-04-11T22:37:37.716Z,2.40
2023-04-11T22:40:06.993Z,2.25
2023-04-11T22:42:35.783Z,2.15
2023-04-11T22:45:05.065Z,2.17
2023-04-11T22:47:38.217Z,2.17
2023-04-11T22:50:06.734Z,2.03
2023-04-11T22:52:35.566Z,1.90
2023-04-11T22:55:04.710Z,2.00
2023-04-11T22:57:36.927Z,1.80
2023-04-11T23:00:07.732Z,1.63
2023-04-11T23:02:37.518Z,1.90
2023-04-11T23:05:05.778Z,2.28
2023-04-11T23:07:37.287Z,2.47
2023-04-11T23:10:06.118Z,1.60
2023-04-11T23:12:34.781Z,2.00
2023-04-11T23:15:03.108Z,1.63
2023-04-11T23:17:33.254Z,1.88
2023-04-11T23:20:03.072Z,1.70
2023-04-11T23:22:30.712Z,1.30
2023-04-11T23:24:58.925Z,1.65
2023-04-11T23:27:26.871Z,1.50
2023-04-11T23:29:54.762Z,3.20
2023-04-11T23:32:25.257Z,1.65
2023-04-11T23:34:54.455Z,1.38
2023-04-11T23:37:22.175Z,2.55
2023-04-11T23:39:50.122Z,1.80
2023-04-11T23:42:18.949Z,1.00
2023-04-11T23:44:50.277Z,1.23
2023-04-11T23:47:18.029Z,1.40
2023-04-11T23:49:45.790Z,1.17
2023-04-11T23:52:14.858Z,1.63
2023-04-11T23:54:43.501Z,1.85
2023-04-11T23:57:17.184Z,1.58
2023-04-11T23:59:46.574Z,1.30
